Eulalia, Pennsylvania
Current Conditions -  °F | °C
As of 6:56 PM on Monday 24 Nov 2014 (Local Time) from KELZ Reporting Station
Clear Clear  
Wind Chill: 53°   Ceiling: Unl
Heat Index: 53°   Visibility: 10mi
Dew Point: 44°   Wind: 15mph
Humidity: 71%   Direction: 240°WSW
Pressure: 29.56"   Gusts: 25mph
Location:  41.7605°N, 77.9728°W
Report Text: KELZ 242356Z AUTO 24013G22KT 10SM CLR 12/07 A2956 RMK AO2 PK WND 24027/2322 RAB09E34 SLP010 P0001 60010 T01170067 10172 20117 51046
Loading
Personal Weather Stations






























Interactive Weather Map New forecast layout! Learn more

10-Day Weather Forecast

Advertisements
Track Severe Weather on mobile